createdAt,value
2022-11-24T00:02:47.140Z,2.08
2022-11-24T00:06:48.907Z,1.73
2022-11-24T00:10:50.595Z,1.90
2022-11-24T00:14:52.392Z,1.90
2022-11-24T00:18:57.670Z,2.13
2022-11-24T00:22:59.347Z,2.88
2022-11-24T00:27:01.052Z,2.65
2022-11-24T00:31:04.631Z,2.78
2022-11-24T00:35:07.759Z,2.92
2022-11-24T00:39:14.133Z,3.47
2022-11-24T00:43:15.939Z,2.10
2022-11-24T00:47:17.669Z,3.15
2022-11-24T00:51:21.396Z,2.60
2022-11-24T00:55:23.139Z,2.45
2022-11-24T00:59:24.853Z,2.80
2022-11-24T01:03:26.533Z,2.25
2022-11-24T01:07:28.294Z,2.72
2022-11-24T01:11:51.822Z,2.63
2022-11-24T01:15:53.650Z,2.03
2022-11-24T01:19:55.305Z,2.58
2022-11-24T01:23:57.812Z,2.42
2022-11-24T01:27:59.651Z,1.88
2022-11-24T01:32:01.410Z,2.60
2022-11-24T01:36:04.178Z,2.20
2022-11-24T01:40:06.565Z,2.13
2022-11-24T01:44:25.890Z,1.90
2022-11-24T01:48:32.500Z,2.20
2022-11-24T01:52:42.772Z,2.22
2022-11-24T01:56:49.099Z,3.22
2022-11-24T02:00:51.677Z,2.28
2022-11-24T02:04:54.161Z,2.40
2022-11-24T02:09:01.281Z,2.00
2022-11-24T02:13:04.330Z,1.92
2022-11-24T02:17:06.011Z,2.55
2022-11-24T02:21:08.393Z,1.90
2022-11-24T02:25:28.047Z,2.00
2022-11-24T02:29:29.818Z,2.00
2022-11-24T02:33:33.474Z,2.22
2022-11-24T02:37:35.436Z,2.42
2022-11-24T02:41:38.123Z,1.75
2022-11-24T02:45:40.133Z,1.98
2022-11-24T02:49:42.295Z,2.08
2022-11-24T02:53:44.075Z,1.83
2022-11-24T02:57:46.226Z,2.05
2022-11-24T03:01:48.108Z,2.08
2022-11-24T03:05:50.285Z,1.50
2022-11-24T03:09:51.922Z,1.70
2022-11-24T03:13:53.819Z,2.30
2022-11-24T03:17:56.883Z,1.70
2022-11-24T03:21:58.998Z,1.60
2022-11-24T03:26:18.783Z,1.13
2022-11-24T03:30:20.555Z,1.45
2022-11-24T03:34:22.324Z,0.98
2022-11-24T03:38:23.984Z,1.05
2022-11-24T03:42:25.646Z,1.08
2022-11-24T03:46:27.406Z,1.10
2022-11-24T03:50:29.325Z,1.65
2022-11-24T03:54:31.267Z,1.00
2022-11-24T03:58:33.309Z,1.52
2022-11-24T04:02:35.078Z,1.75
2022-11-24T04:06:36.799Z,1.75
2022-11-24T04:10:39.512Z,2.50
2022-11-24T04:14:41.247Z,1.65
2022-11-24T04:18:43.544Z,2.20
2022-11-24T04:22:45.306Z,2.17
2022-11-24T04:26:47.097Z,1.52
2022-11-24T04:30:48.795Z,1.42
2022-11-24T04:34:50.506Z,1.08
2022-11-24T04:39:25.723Z,1.88
2022-11-24T04:43:18.511Z,1.00
2022-11-24T04:47:22.090Z,0.75
2022-11-24T04:51:24.020Z,0.65
2022-11-24T04:55:25.725Z,0.45
2022-11-24T04:59:27.548Z,0.38
2022-11-24T05:03:29.231Z,0.50
2022-11-24T05:07:31.066Z,0.47
2022-11-24T05:11:32.807Z,0.57
2022-11-24T05:15:35.326Z,0.80
2022-11-24T05:19:37.058Z,0.22
2022-11-24T05:23:38.999Z,0.43
2022-11-24T05:27:40.896Z,0.65
2022-11-24T05:31:42.760Z,0.35
2022-11-24T05:35:45.544Z,0.22
2022-11-24T05:39:47.265Z,0.60
2022-11-24T05:43:48.959Z,0.30
2022-11-24T05:47:51.599Z,0.80
2022-11-24T05:51:53.341Z,0.60
2022-11-24T05:55:55.052Z,0.65
2022-11-24T05:59:56.764Z,0.70
2022-11-24T06:03:58.434Z,1.05
2022-11-24T06:08:00.874Z,0.40
2022-11-24T06:12:02.640Z,0.75
2022-11-24T06:16:04.597Z,0.95
2022-11-24T06:20:07.684Z,1.70
2022-11-24T06:24:09.409Z,1.08
2022-11-24T06:28:11.073Z,1.20
2022-11-24T06:32:12.809Z,2.45
2022-11-24T06:36:15.339Z,1.27
2022-11-24T06:40:17.243Z,1.55
2022-11-24T06:44:19.358Z,1.80
2022-11-24T06:48:21.126Z,1.70
2022-11-24T06:52:22.822Z,1.88
2022-11-24T06:56:24.554Z,2.97
2022-11-24T07:00:26.361Z,2.97
2022-11-24T07:04:28.047Z,2.95
2022-11-24T07:08:29.751Z,3.00
2022-11-24T07:12:35.371Z,2.95
2022-11-24T07:16:37.248Z,3.53
2022-11-24T07:20:39.175Z,3.20
2022-11-24T07:24:41.489Z,2.97
2022-11-24T07:28:43.176Z,4.13
2022-11-24T07:32:44.866Z,3.97
2022-11-24T07:36:46.544Z,3.35
2022-11-24T07:40:48.322Z,3.20
2022-11-24T07:44:50.011Z,3.22
2022-11-24T07:48:51.927Z,3.40
2022-11-24T07:52:53.713Z,3.40
2022-11-24T07:56:55.649Z,3.10
2022-11-24T08:00:58.182Z,2.60
2022-11-24T08:04:59.987Z,3.10
2022-11-24T08:09:02.085Z,2.90
2022-11-24T08:13:03.816Z,2.60
2022-11-24T08:17:05.644Z,3.00
2022-11-24T08:21:08.733Z,2.80
2022-11-24T08:25:11.049Z,3.22
2022-11-24T08:29:12.776Z,4.68
2022-11-24T08:33:14.590Z,3.05
2022-11-24T08:37:16.428Z,2.75
2022-11-24T08:41:18.203Z,3.92
2022-11-24T08:45:21.655Z,2.58
2022-11-24T08:49:24.793Z,2.90
2022-11-24T08:53:26.612Z,2.55
2022-11-24T08:57:28.537Z,3.65
2022-11-24T09:01:30.349Z,2.33
2022-11-24T09:09:54.026Z,2.15
2022-11-24T09:13:55.902Z,2.80
2022-11-24T09:17:57.695Z,3.08
2022-11-24T09:21:59.426Z,2.40
2022-11-24T09:26:06.203Z,1.98
2022-11-24T09:30:08.764Z,2.10
2022-11-24T09:34:15.226Z,2.40
2022-11-24T09:38:16.926Z,2.33
2022-11-24T09:42:53.836Z,2.45
2022-11-24T09:47:13.608Z,2.47
2022-11-24T09:51:16.167Z,3.45
2022-11-24T09:55:27.458Z,1.90
2022-11-24T09:59:29.233Z,4.05
2022-11-24T10:03:42.003Z,2.60
2022-11-24T10:07:56.795Z,2.35
2022-11-24T10:12:05.215Z,2.55
2022-11-24T10:16:24.667Z,2.45
2022-11-24T10:20:49.726Z,2.42
2022-11-24T10:25:04.164Z,2.65
2022-11-24T10:29:34.782Z,2.40
2022-11-24T10:33:36.918Z,2.83
2022-11-24T10:37:50.788Z,3.10
2022-11-24T10:42:16.449Z,4.25
2022-11-24T10:46:27.309Z,3.05
2022-11-24T10:50:33.341Z,2.50
2022-11-24T10:54:36.207Z,2.75
2022-11-24T10:58:39.120Z,5.50
2022-11-24T11:02:41.115Z,5.10
2022-11-24T11:06:43.970Z,2.38
2022-11-24T11:10:47.210Z,2.38
2022-11-24T11:14:48.964Z,2.28
2022-11-24T11:18:50.897Z,3.03
2022-11-24T11:22:56.105Z,2.58
2022-11-24T11:27:02.723Z,2.67
2022-11-24T11:31:17.135Z,4.30
2022-11-24T11:35:19.583Z,2.67
2022-11-24T11:39:25.232Z,2.45
2022-11-24T11:43:34.887Z,3.22
2022-11-24T11:47:43.434Z,2.70
2022-11-24T11:52:08.304Z,2.92
2022-11-24T11:56:25.835Z,2.67
2022-11-24T12:00:29.236Z,3.25
2022-11-24T12:04:58.861Z,3.03
2022-11-24T12:09:19.774Z,2.42
2022-11-24T12:13:50.327Z,2.88
2022-11-24T12:17:58.450Z,2.10
2022-11-24T12:22:13.856Z,2.22
2022-11-24T12:26:30.967Z,2.78
2022-11-24T12:30:45.079Z,2.25
2022-11-24T12:35:18.316Z,3.30
2022-11-24T12:39:49.218Z,2.60
2022-11-24T12:43:53.485Z,3.08
2022-11-24T12:48:21.303Z,2.88
2022-11-24T12:52:27.457Z,2.28
2022-11-24T12:56:40.728Z,2.85
2022-11-24T13:01:14.669Z,2.30
2022-11-24T13:05:41.275Z,2.30
2022-11-24T13:10:34.676Z,2.60
2022-11-24T13:14:48.181Z,2.43
2022-11-24T13:19:02.636Z,2.55
2022-11-24T13:23:08.514Z,2.90
2022-11-24T13:27:15.547Z,2.30
2022-11-24T13:31:23.033Z,2.60
2022-11-24T13:35:24.920Z,2.50
2022-11-24T13:39:50.536Z,2.60
2022-11-24T13:44:14.773Z,2.72
2022-11-24T13:48:19.832Z,3.72
2022-11-24T13:52:40.123Z,3.30
2022-11-24T13:56:41.908Z,2.67
2022-11-24T14:01:21.422Z,4.03
2022-11-24T14:05:33.590Z,2.90
2022-11-24T14:09:51.214Z,2.67
2022-11-24T14:13:56.044Z,2.35
2022-11-24T14:17:58.024Z,2.75
2022-11-24T14:21:59.767Z,2.92
2022-11-24T14:26:01.475Z,2.35
2022-11-24T14:30:15.558Z,3.83
2022-11-24T14:34:22.074Z,2.50
2022-11-24T14:38:23.834Z,2.63
2022-11-24T14:42:28.548Z,2.20
2022-11-24T14:46:30.473Z,2.20
2022-11-24T14:50:32.348Z,2.10
2022-11-24T14:54:37.649Z,2.17
2022-11-24T14:58:42.381Z,2.40
2022-11-24T15:02:52.216Z,2.97
2022-11-24T15:07:12.662Z,2.28
2022-11-24T15:11:14.859Z,2.00
2022-11-24T15:15:18.381Z,2.63
2022-11-24T15:19:20.301Z,2.63
2022-11-24T15:23:25.260Z,3.15
2022-11-24T15:27:26.909Z,3.17
2022-11-24T15:31:28.757Z,2.45
2022-11-24T15:35:32.438Z,2.10
2022-11-24T15:39:34.274Z,2.47
2022-11-24T15:43:40.976Z,1.85
2022-11-24T15:47:42.727Z,2.70
2022-11-24T15:51:46.192Z,2.90
2022-11-24T15:55:48.666Z,2.40
2022-11-24T15:59:50.684Z,2.45
2022-11-24T16:03:52.369Z,2.90
2022-11-24T16:07:54.133Z,2.35
2022-11-24T16:11:55.932Z,2.50
2022-11-24T16:15:57.666Z,2.42
2022-11-24T16:20:00.736Z,2.35
2022-11-24T16:24:02.724Z,1.98
2022-11-24T16:28:04.677Z,2.58
2022-11-24T16:32:06.479Z,2.15
2022-11-24T16:36:08.747Z,2.53
2022-11-24T16:40:11.016Z,3.22
2022-11-24T16:44:12.796Z,3.00
2022-11-24T16:48:14.555Z,2.60
2022-11-24T16:52:16.860Z,3.35
2022-11-24T16:56:19.244Z,2.70
2022-11-24T17:00:21.115Z,2.58
2022-11-24T17:04:22.854Z,2.38
2022-11-24T17:08:24.624Z,2.50
2022-11-24T17:12:27.197Z,2.40
2022-11-24T17:16:29.724Z,2.08
2022-11-24T17:20:31.757Z,2.40
2022-11-24T17:24:34.011Z,2.55
2022-11-24T17:28:36.426Z,2.88
2022-11-24T17:32:38.360Z,3.08
2022-11-24T17:36:41.602Z,2.42
2022-11-24T17:40:48.081Z,2.60
2022-11-24T17:44:49.952Z,2.58
2022-11-24T17:48:51.720Z,2.78
2022-11-24T17:52:54.383Z,2.67
2022-11-24T17:56:56.088Z,2.83
2022-11-24T18:00:58.553Z,3.28
2022-11-24T18:05:00.262Z,2.55
2022-11-24T18:09:02.094Z,2.78
2022-11-24T18:13:03.868Z,2.90
2022-11-24T18:17:05.931Z,2.00
2022-11-24T18:21:14.166Z,2.75
2022-11-24T18:25:15.932Z,3.03
2022-11-24T18:29:17.777Z,2.85
2022-11-24T18:33:20.344Z,3.25
2022-11-24T18:37:22.264Z,3.17
2022-11-24T18:41:24.195Z,2.85
2022-11-24T18:45:26.395Z,3.08
2022-11-24T18:49:28.316Z,2.97
2022-11-24T18:53:30.563Z,2.20
2022-11-24T18:57:32.356Z,4.03
2022-11-24T19:01:34.257Z,2.65
2022-11-24T19:05:36.056Z,3.00
2022-11-24T19:09:38.167Z,2.28
2022-11-24T19:13:39.989Z,3.30
2022-11-24T19:17:41.843Z,2.78
2022-11-24T19:21:44.151Z,3.67
2022-11-24T19:25:47.364Z,2.55
2022-11-24T19:29:49.195Z,3.33
2022-11-24T19:33:52.937Z,2.88
2022-11-24T19:37:55.827Z,2.95
2022-11-24T19:41:57.596Z,3.20
2022-11-24T19:46:04.552Z,2.50
2022-11-24T19:50:10.332Z,3.00
2022-11-24T19:54:15.068Z,3.40
2022-11-24T19:58:16.785Z,2.60
2022-11-24T20:02:18.664Z,2.28
2022-11-24T20:06:20.483Z,2.60
2022-11-24T20:10:22.315Z,2.80
2022-11-24T20:14:24.102Z,2.50
2022-11-24T20:18:27.207Z,2.88
2022-11-24T20:22:29.264Z,2.28
2022-11-24T20:26:35.226Z,2.97
2022-11-24T20:30:36.956Z,2.83
2022-11-24T20:34:38.719Z,2.88
2022-11-24T20:38:41.672Z,3.13
2022-11-24T20:42:43.585Z,2.88
2022-11-24T20:46:46.735Z,2.80
2022-11-24T20:50:51.278Z,3.08
2022-11-24T20:54:53.554Z,2.50
2022-11-24T20:58:55.710Z,2.75
2022-11-24T21:02:58.617Z,2.97
2022-11-24T21:07:00.412Z,2.92
2022-11-24T21:11:03.849Z,2.85
2022-11-24T21:15:07.738Z,2.58
2022-11-24T21:19:14.824Z,3.38
2022-11-24T21:23:17.248Z,2.50
2022-11-24T21:27:18.964Z,2.55
2022-11-24T21:31:21.588Z,3.22
2022-11-24T21:35:23.653Z,2.60
2022-11-24T21:39:25.528Z,2.33
2022-11-24T21:43:31.047Z,2.72
2022-11-24T21:47:33.845Z,2.67
2022-11-24T21:51:35.587Z,2.80
2022-11-24T21:55:37.302Z,3.30
2022-11-24T21:59:39.173Z,2.70
2022-11-24T22:03:41.053Z,2.40
2022-11-24T22:07:45.170Z,3.08
2022-11-24T22:11:52.387Z,2.38
2022-11-24T22:16:06.247Z,3.53
2022-11-24T22:20:08.691Z,2.60
2022-11-24T22:24:10.771Z,2.60
2022-11-24T22:28:12.485Z,3.10
2022-11-24T22:32:14.339Z,2.20
2022-11-24T22:36:17.609Z,3.25
2022-11-24T22:40:19.322Z,2.72
2022-11-24T22:44:21.152Z,2.55
2022-11-24T22:48:22.820Z,2.50
2022-11-24T22:52:24.730Z,2.45
2022-11-24T22:56:28.099Z,2.80
2022-11-24T23:00:29.959Z,2.67
2022-11-24T23:04:31.777Z,2.85
2022-11-24T23:08:35.100Z,2.60
2022-11-24T23:12:36.983Z,2.65
2022-11-24T23:16:39.049Z,2.50
2022-11-24T23:20:40.771Z,3.00
2022-11-24T23:24:42.502Z,2.53
2022-11-24T23:28:44.605Z,3.08
2022-11-24T23:32:46.393Z,2.92
2022-11-24T23:36:48.859Z,2.63
2022-11-24T23:40:50.685Z,3.30
2022-11-24T23:44:52.399Z,2.13
2022-11-24T23:48:55.453Z,3.08
2022-11-24T23:52:57.128Z,2.88
2022-11-24T23:56:58.852Z,2.90
